createdAt,value
2024-04-11T00:01:28.085Z,4.33
2024-04-11T00:03:56.412Z,5.63
2024-04-11T00:06:23.310Z,2.60
2024-04-11T00:08:50.001Z,5.93
2024-04-11T00:11:16.693Z,3.23
2024-04-11T00:13:43.404Z,5.27
2024-04-11T00:16:10.883Z,5.47
2024-04-11T00:18:41.068Z,6.63
2024-04-11T00:21:08.000Z,4.57
2024-04-11T00:23:34.754Z,2.53
2024-04-11T00:26:01.605Z,1.90
2024-04-11T00:28:28.247Z,4.15
2024-04-11T00:30:54.935Z,2.03
2024-04-11T00:33:22.868Z,3.60
2024-04-11T00:35:51.047Z,3.57
2024-04-11T00:38:19.137Z,2.00
2024-04-11T00:40:56.494Z,1.83
2024-04-11T00:43:30.969Z,3.23
2024-04-11T00:45:59.437Z,4.47
2024-04-11T00:48:26.858Z,3.07
2024-04-11T00:50:54.928Z,2.60
2024-04-11T00:53:23.153Z,3.17
2024-04-11T00:55:49.871Z,4.80
2024-04-11T00:58:17.228Z,2.27
2024-04-11T01:00:44.143Z,2.73
2024-04-11T01:03:11.091Z,2.87
2024-04-11T01:05:37.940Z,1.90
2024-04-11T01:08:08.292Z,1.43
2024-04-11T01:10:35.831Z,3.87
2024-04-11T01:13:03.467Z,3.47
2024-04-11T01:15:30.384Z,4.10
2024-04-11T01:17:57.628Z,2.35
2024-04-11T01:20:24.650Z,4.50
2024-04-11T01:22:51.410Z,2.50
2024-04-11T01:25:19.373Z,3.33
2024-04-11T01:27:47.000Z,2.87
2024-04-11T01:30:13.692Z,5.30
2024-04-11T01:32:40.576Z,4.37
2024-04-11T01:35:10.130Z,2.77
2024-04-11T01:37:37.478Z,2.50
2024-04-11T01:40:09.160Z,3.10
2024-04-11T01:42:36.032Z,3.85
2024-04-11T01:45:03.703Z,1.50
2024-04-11T01:47:31.406Z,3.20
2024-04-11T01:49:58.277Z,1.70
2024-04-11T01:52:25.013Z,4.23
2024-04-11T01:54:51.760Z,3.92
2024-04-11T01:57:18.408Z,4.50
2024-04-11T01:59:45.217Z,3.90
2024-04-11T02:02:12.126Z,2.83
2024-04-11T02:04:39.890Z,2.30
2024-04-11T02:07:06.669Z,2.35
2024-04-11T02:09:33.295Z,2.33
2024-04-11T02:12:00.172Z,4.50
2024-04-11T02:14:27.625Z,6.03
2024-04-11T02:16:56.399Z,3.50
2024-04-11T02:19:23.364Z,1.83
2024-04-11T02:21:49.971Z,6.93
2024-04-11T02:24:19.565Z,5.37
2024-04-11T02:26:50.350Z,3.63
2024-04-11T02:29:18.449Z,3.33
2024-04-11T02:31:47.705Z,2.13
2024-04-11T02:34:14.736Z,4.27
2024-04-11T02:36:41.558Z,4.17
2024-04-11T02:39:14.171Z,4.17
2024-04-11T02:41:43.134Z,3.43
2024-04-11T02:44:10.646Z,3.15
2024-04-11T02:46:37.267Z,5.03
2024-04-11T02:49:06.446Z,2.80
2024-04-11T02:51:37.251Z,4.00
2024-04-11T02:54:08.314Z,3.43
2024-04-11T02:56:35.318Z,6.20
2024-04-11T02:59:02.133Z,3.93
2024-04-11T03:01:29.381Z,2.10
2024-04-11T03:03:58.220Z,2.77
2024-04-11T03:06:24.877Z,4.87
2024-04-11T03:08:53.846Z,3.40
2024-04-11T03:11:20.702Z,4.80
2024-04-11T03:13:47.408Z,7.60
2024-04-11T03:16:15.485Z,4.20
2024-04-11T03:18:42.378Z,3.37
2024-04-11T03:21:09.238Z,3.17
2024-04-11T03:23:36.047Z,6.10
2024-04-11T03:26:02.756Z,3.67
2024-04-11T03:28:29.600Z,4.23
2024-04-11T03:31:09.202Z,3.07
2024-04-11T03:33:36.916Z,2.78
2024-04-11T03:36:12.002Z,7.27
2024-04-11T03:38:39.110Z,4.00
2024-04-11T03:41:11.233Z,3.93
2024-04-11T03:43:39.783Z,5.80
2024-04-11T03:46:22.952Z,3.65
2024-04-11T03:48:52.553Z,3.77
2024-04-11T03:51:21.542Z,3.43
2024-04-11T03:53:52.447Z,7.10
2024-04-11T03:56:23.158Z,3.03
2024-04-11T03:58:53.945Z,4.50
2024-04-11T04:01:22.928Z,3.90
2024-04-11T04:03:51.109Z,3.30
2024-04-11T04:06:18.107Z,4.37
2024-04-11T04:08:46.795Z,3.73
2024-04-11T04:11:14.988Z,2.22
2024-04-11T04:13:42.388Z,4.13
2024-04-11T04:16:13.665Z,5.37
2024-04-11T04:18:47.504Z,2.90
2024-04-11T04:21:15.587Z,3.67
2024-04-11T04:23:43.874Z,3.50
2024-04-11T04:26:13.694Z,4.67
2024-04-11T04:28:41.119Z,2.60
2024-04-11T04:31:24.783Z,5.00
2024-04-11T04:33:54.387Z,4.07
2024-04-11T04:36:27.252Z,3.58
2024-04-11T04:38:57.751Z,3.50
2024-04-11T04:41:29.719Z,5.27
2024-04-11T04:44:01.358Z,3.90
2024-04-11T04:46:35.918Z,1.83
2024-04-11T04:49:05.022Z,2.60
2024-04-11T04:51:37.247Z,3.27
2024-04-11T04:54:04.443Z,4.57
2024-04-11T04:56:34.492Z,6.43
2024-04-11T04:59:01.757Z,2.87
2024-04-11T05:01:28.510Z,2.35
2024-04-11T05:03:57.073Z,1.30
2024-04-11T05:06:24.417Z,3.50
2024-04-11T05:08:54.759Z,3.80
2024-04-11T05:11:23.591Z,4.00
2024-04-11T05:13:51.326Z,7.65
2024-04-11T05:16:22.523Z,2.50
2024-04-11T05:18:55.123Z,2.03
2024-04-11T05:21:25.879Z,5.80
2024-04-11T05:23:56.936Z,2.67
2024-04-11T05:26:27.358Z,3.67
2024-04-11T05:28:56.506Z,8.03
2024-04-11T05:31:29.645Z,4.30
2024-04-11T05:34:02.040Z,2.60
2024-04-11T05:36:31.892Z,3.87
2024-04-11T05:38:59.091Z,5.00
2024-04-11T05:41:26.895Z,8.17
2024-04-11T05:43:55.832Z,3.60
2024-04-11T05:46:23.683Z,4.13
2024-04-11T05:48:51.752Z,4.00
2024-04-11T05:51:20.196Z,5.10
2024-04-11T05:53:47.340Z,3.30
2024-04-11T05:56:15.373Z,6.30
2024-04-11T05:58:44.338Z,2.23
2024-04-11T06:01:17.315Z,3.77
2024-04-11T06:03:50.774Z,6.07
2024-04-11T06:06:20.974Z,3.13
2024-04-11T06:08:48.841Z,4.40
2024-04-11T06:11:22.872Z,4.27
2024-04-11T06:13:49.647Z,2.53
2024-04-11T06:16:16.803Z,6.10
2024-04-11T06:18:45.224Z,4.40
2024-04-11T06:21:19.813Z,6.40
2024-04-11T06:23:46.700Z,4.23
2024-04-11T06:26:16.030Z,5.03
2024-04-11T06:28:43.011Z,4.40
2024-04-11T06:31:10.676Z,3.57
2024-04-11T06:33:42.374Z,4.53
2024-04-11T06:36:12.143Z,4.83
2024-04-11T06:38:39.653Z,3.63
2024-04-11T06:41:09.771Z,4.55
2024-04-11T06:43:39.351Z,5.70
2024-04-11T06:46:11.755Z,6.57
2024-04-11T06:48:38.907Z,4.40
2024-04-11T06:51:08.332Z,3.90
2024-04-11T06:53:35.596Z,5.78
2024-04-11T06:56:02.306Z,3.30
2024-04-11T06:58:30.150Z,2.53
2024-04-11T07:01:01.365Z,6.70
2024-04-11T07:03:29.550Z,2.70
2024-04-11T07:05:58.362Z,4.53
2024-04-11T07:08:30.614Z,2.73
2024-04-11T07:10:59.912Z,5.20
2024-04-11T07:13:29.143Z,2.93
2024-04-11T07:15:59.833Z,3.47
2024-04-11T07:18:35.779Z,4.53
2024-04-11T07:21:08.853Z,4.47
2024-04-11T07:23:35.917Z,5.13
2024-04-11T07:26:02.601Z,5.47
2024-04-11T07:28:29.235Z,4.43
2024-04-11T07:30:55.945Z,6.10
2024-04-11T07:33:22.697Z,4.37
2024-04-11T07:35:50.242Z,3.53
2024-04-11T07:38:18.309Z,3.47
2024-04-11T07:40:55.449Z,5.83
2024-04-11T07:43:24.080Z,5.45
2024-04-11T07:45:50.883Z,3.00
2024-04-11T07:48:20.356Z,5.40
2024-04-11T07:50:47.268Z,3.73
2024-04-11T07:53:16.537Z,3.63
2024-04-11T07:55:45.379Z,6.57
2024-04-11T07:58:12.262Z,7.33
2024-04-11T08:00:48.941Z,3.50
2024-04-11T08:03:18.012Z,4.93
2024-04-11T08:05:45.445Z,4.73
2024-04-11T08:08:13.619Z,5.88
2024-04-11T08:10:40.280Z,8.97
2024-04-11T08:13:09.280Z,6.87
2024-04-11T08:15:35.987Z,7.53
2024-04-11T08:18:05.807Z,7.07
2024-04-11T08:20:32.746Z,5.07
2024-04-11T08:23:03.780Z,7.77
2024-04-11T08:25:32.798Z,7.73
2024-04-11T08:28:01.630Z,8.23
2024-04-11T08:30:28.270Z,7.03
2024-04-11T08:32:56.257Z,8.07
2024-04-11T08:35:22.983Z,7.70
2024-04-11T08:37:52.747Z,6.80
2024-04-11T08:40:20.526Z,8.57
2024-04-11T08:42:49.072Z,7.33
2024-04-11T08:45:15.766Z,7.03
2024-04-11T08:47:42.558Z,8.03
2024-04-11T08:50:11.352Z,11.07
2024-04-11T08:52:44.613Z,7.37
2024-04-11T08:55:14.541Z,6.87
2024-04-11T08:57:41.321Z,9.02
2024-04-11T09:00:14.883Z,8.53
2024-04-11T09:02:42.709Z,6.27
2024-04-11T09:07:40.866Z,8.70
2024-04-11T09:10:08.422Z,6.35
2024-04-11T09:12:35.233Z,6.80
2024-04-11T09:15:08.483Z,8.53
2024-04-11T09:17:45.532Z,7.97
2024-04-11T09:20:20.689Z,8.37
2024-04-11T09:22:55.518Z,10.52
2024-04-11T09:25:27.168Z,8.63
2024-04-11T09:28:00.114Z,8.80
2024-04-11T09:30:36.046Z,6.63
2024-04-11T09:33:11.386Z,5.77
2024-04-11T09:35:42.950Z,10.80
2024-04-11T09:38:14.032Z,9.37
2024-04-11T09:40:45.423Z,11.03
2024-04-11T09:43:16.929Z,11.57
2024-04-11T09:45:50.502Z,9.10
2024-04-11T09:48:22.441Z,6.75
2024-04-11T09:50:52.165Z,5.50
2024-04-11T09:53:28.510Z,9.23
2024-04-11T09:55:58.224Z,10.40
2024-04-11T09:58:29.693Z,7.33
2024-04-11T10:01:06.281Z,6.65
2024-04-11T10:03:44.179Z,8.93
2024-04-11T10:06:15.685Z,6.87
2024-04-11T10:08:46.836Z,7.90
2024-04-11T10:11:14.238Z,6.13
2024-04-11T10:13:50.603Z,8.10
2024-04-11T10:16:29.468Z,7.03
2024-04-11T10:19:07.241Z,7.83
2024-04-11T10:21:47.508Z,11.03
2024-04-11T10:24:27.559Z,8.03
2024-04-11T10:26:56.261Z,5.85
2024-04-11T10:29:28.001Z,8.40
2024-04-11T10:31:59.542Z,5.67
2024-04-11T10:34:35.451Z,6.80
2024-04-11T10:37:04.185Z,7.37
2024-04-11T10:39:36.846Z,5.20
2024-04-11T10:42:04.613Z,5.73
2024-04-11T10:44:31.484Z,5.17
2024-04-11T10:46:58.328Z,5.90
2024-04-11T10:49:29.793Z,6.43
2024-04-11T10:51:59.861Z,5.75
2024-04-11T10:54:31.515Z,5.50
2024-04-11T10:56:59.731Z,5.30
2024-04-11T10:59:29.342Z,5.67
2024-04-11T11:02:10.299Z,4.80
2024-04-11T11:04:44.938Z,5.68
2024-04-11T11:07:12.454Z,4.87
2024-04-11T11:09:46.878Z,5.20
2024-04-11T11:12:17.191Z,4.33
2024-04-11T11:14:44.347Z,5.03
2024-04-11T11:17:18.471Z,4.95
2024-04-11T11:19:46.323Z,8.00
2024-04-11T11:22:15.787Z,5.63
2024-04-11T11:24:44.364Z,5.20
2024-04-11T11:27:11.259Z,5.13
2024-04-11T11:29:43.427Z,6.32
2024-04-11T11:32:22.220Z,7.23
2024-04-11T11:34:49.050Z,9.27
2024-04-11T11:37:16.005Z,6.33
2024-04-11T11:39:51.307Z,8.10
2024-04-11T11:42:33.389Z,6.90
2024-04-11T11:45:00.953Z,4.93
2024-04-11T11:47:38.454Z,6.93
2024-04-11T11:50:20.566Z,6.00
2024-04-11T11:52:55.345Z,6.03
2024-04-11T11:55:26.939Z,6.97
2024-04-11T11:58:00.522Z,5.70
2024-04-11T12:00:34.436Z,6.23
2024-04-11T12:03:18.527Z,5.60
2024-04-11T12:05:53.560Z,8.00
2024-04-11T12:08:20.763Z,5.10
2024-04-11T12:11:02.744Z,6.20
2024-04-11T12:13:32.418Z,4.93
2024-04-11T12:15:59.551Z,6.10
2024-04-11T12:18:26.597Z,6.37
2024-04-11T12:20:54.259Z,6.13
2024-04-11T12:23:21.858Z,8.37
2024-04-11T12:25:51.046Z,5.50
2024-04-11T12:28:21.244Z,6.83
2024-04-11T12:30:56.458Z,8.63
2024-04-11T12:33:32.611Z,7.68
2024-04-11T12:36:10.358Z,7.83
2024-04-11T12:38:40.955Z,4.97
2024-04-11T12:41:14.360Z,5.63
2024-04-11T12:43:42.289Z,5.57
2024-04-11T12:46:10.615Z,6.68
2024-04-11T12:48:39.635Z,8.67
2024-04-11T12:51:07.919Z,5.43
2024-04-11T12:53:41.245Z,4.93
2024-04-11T12:56:08.177Z,6.47
2024-04-11T12:58:42.545Z,6.32
2024-04-11T13:01:14.054Z,4.10
2024-04-11T13:03:46.862Z,7.87
2024-04-11T13:06:30.454Z,6.23
2024-04-11T13:09:18.712Z,4.67
2024-04-11T13:11:50.112Z,6.97
2024-04-11T13:14:19.873Z,7.27
2024-04-11T13:17:03.616Z,6.97
2024-04-11T13:19:36.611Z,7.60
2024-04-11T13:22:08.615Z,5.50
2024-04-11T13:25:00.859Z,6.55
2024-04-11T13:27:39.048Z,6.00
2024-04-11T13:30:15.666Z,5.23
2024-04-11T13:32:49.921Z,5.47
2024-04-11T13:35:36.874Z,7.20
2024-04-11T13:38:13.909Z,4.80
2024-04-11T13:41:03.021Z,6.53
2024-04-11T13:43:30.473Z,5.73
2024-04-11T13:46:07.788Z,6.87
2024-04-11T13:48:50.174Z,7.67
2024-04-11T13:51:31.354Z,4.60
2024-04-11T13:53:59.089Z,5.43
2024-04-11T13:56:30.770Z,6.27
2024-04-11T13:58:59.797Z,6.53
2024-04-11T14:01:29.928Z,5.80
2024-04-11T14:03:57.174Z,5.18
2024-04-11T14:06:40.388Z,4.73
2024-04-11T14:09:11.547Z,5.33
2024-04-11T14:11:38.798Z,6.40
2024-04-11T14:14:05.907Z,3.30
2024-04-11T14:16:51.171Z,2.67
2024-04-11T14:19:17.788Z,2.57
2024-04-11T14:21:54.567Z,2.00
2024-04-11T14:24:36.812Z,2.63
2024-04-11T14:27:07.530Z,2.77
2024-04-11T14:29:38.478Z,5.70
2024-04-11T14:32:07.421Z,2.63
2024-04-11T14:34:52.715Z,3.63
2024-04-11T14:37:33.345Z,2.57
2024-04-11T14:40:05.210Z,2.90
2024-04-11T14:42:35.637Z,4.70
2024-04-11T14:45:07.664Z,3.03
2024-04-11T14:47:34.867Z,2.50
2024-04-11T14:50:03.782Z,2.83
2024-04-11T14:52:34.032Z,3.40
2024-04-11T14:55:01.211Z,2.42
2024-04-11T14:57:30.434Z,2.57
2024-04-11T15:00:00.703Z,3.27
2024-04-11T15:02:30.372Z,3.73
2024-04-11T15:05:10.441Z,2.60
2024-04-11T15:07:37.426Z,5.47
2024-04-11T15:10:18.169Z,3.73
2024-04-11T15:12:51.209Z,7.27
2024-04-11T15:15:23.722Z,2.67
2024-04-11T15:18:01.031Z,3.93
2024-04-11T15:20:49.400Z,3.75
2024-04-11T15:23:29.392Z,5.03
2024-04-11T15:25:57.378Z,2.63
2024-04-11T15:28:24.158Z,8.13
2024-04-11T15:31:12.526Z,4.20
2024-04-11T15:33:55.185Z,3.88
2024-04-11T15:36:35.418Z,4.23
2024-04-11T15:39:02.851Z,3.43
2024-04-11T15:41:30.649Z,5.40
2024-04-11T15:43:57.529Z,5.27
2024-04-11T15:46:25.544Z,5.78
2024-04-11T15:48:58.402Z,4.77
2024-04-11T15:51:25.905Z,8.10
2024-04-11T15:54:01.567Z,6.40
2024-04-11T15:56:38.908Z,5.50
2024-04-11T15:59:12.005Z,6.47
2024-04-11T16:01:42.001Z,6.23
2024-04-11T16:04:09.234Z,5.47
2024-04-11T16:06:49.306Z,5.10
2024-04-11T16:09:17.512Z,4.70
2024-04-11T16:11:47.048Z,6.10
2024-04-11T16:14:18.212Z,5.67
2024-04-11T16:16:51.798Z,5.03
2024-04-11T16:19:18.898Z,7.00
2024-04-11T16:21:45.695Z,4.50
2024-04-11T16:24:15.774Z,6.32
2024-04-11T16:26:42.438Z,6.13
2024-04-11T16:29:09.337Z,9.20
2024-04-11T16:31:39.709Z,8.27
2024-04-11T16:34:08.231Z,7.10
2024-04-11T16:36:54.616Z,6.55
2024-04-11T16:39:30.429Z,8.47
2024-04-11T16:41:59.679Z,6.50
2024-04-11T16:44:26.685Z,7.93
2024-04-11T16:46:57.129Z,7.10
2024-04-11T16:49:43.429Z,7.22
2024-04-11T16:52:11.403Z,6.30
2024-04-11T16:54:44.718Z,7.43
2024-04-11T16:57:14.706Z,5.00
2024-04-11T16:59:45.703Z,4.73
2024-04-11T17:02:12.775Z,5.93
2024-04-11T17:04:43.087Z,5.43
2024-04-11T17:10:34.929Z,4.38
2024-04-11T17:13:02.481Z,6.93
2024-04-11T17:15:31.171Z,5.43
2024-04-11T17:18:07.017Z,7.23
2024-04-11T17:20:36.488Z,8.55
2024-04-11T17:23:03.311Z,5.40
2024-04-11T17:25:34.249Z,5.67
2024-04-11T17:28:01.488Z,6.90
2024-04-11T17:30:55.301Z,6.23
2024-04-11T17:33:32.412Z,5.15
2024-04-11T17:35:59.555Z,6.67
2024-04-11T17:38:41.691Z,4.80
2024-04-11T17:41:08.668Z,5.90
2024-04-11T17:43:43.051Z,6.07
2024-04-11T17:46:09.738Z,5.20
2024-04-11T17:48:43.255Z,4.70
2024-04-11T17:51:16.863Z,7.73
2024-04-11T17:53:50.707Z,5.80
2024-04-11T17:56:24.457Z,4.90
2024-04-11T17:58:53.701Z,5.63
2024-04-11T18:01:24.682Z,6.67
2024-04-11T18:03:54.016Z,5.53
2024-04-11T18:06:21.393Z,7.30
2024-04-11T18:08:52.700Z,8.00
2024-04-11T18:11:21.185Z,6.03
2024-04-11T18:13:50.313Z,6.33
2024-04-11T18:16:18.701Z,8.07
2024-04-11T18:18:48.838Z,5.03
2024-04-11T18:21:19.311Z,5.10
2024-04-11T18:23:51.877Z,8.63
2024-04-11T18:26:18.837Z,6.20
2024-04-11T18:28:45.451Z,7.60
2024-04-11T18:31:17.864Z,6.30
2024-04-11T18:33:48.956Z,7.10
2024-04-11T18:36:26.093Z,5.05
2024-04-11T18:38:53.389Z,9.50
2024-04-11T18:41:39.856Z,8.13
2024-04-11T18:44:09.754Z,7.77
2024-04-11T18:46:55.269Z,8.93
2024-04-11T18:49:29.096Z,7.85
2024-04-11T18:52:00.022Z,7.90
2024-04-11T18:54:32.401Z,7.70
2024-04-11T18:57:02.864Z,9.43
2024-04-11T18:59:35.339Z,8.30
2024-04-11T19:02:03.116Z,10.23
2024-04-11T19:04:42.923Z,8.53
2024-04-11T19:07:25.191Z,10.17
2024-04-11T19:09:59.863Z,9.03
2024-04-11T19:12:27.576Z,12.10
2024-04-11T19:14:57.915Z,10.50
2024-04-11T19:17:27.198Z,10.57
2024-04-11T19:19:54.546Z,12.43
2024-04-11T19:22:23.568Z,14.50
2024-04-11T19:24:54.066Z,13.53
2024-04-11T19:27:22.552Z,9.90
2024-04-11T19:29:53.081Z,12.10
2024-04-11T19:32:19.843Z,10.33
2024-04-11T19:34:49.681Z,11.50
2024-04-11T19:37:16.799Z,12.77
2024-04-11T19:39:46.734Z,14.73
2024-04-11T19:42:19.927Z,11.87
2024-04-11T19:44:50.307Z,13.83
2024-04-11T19:47:20.279Z,12.73
2024-04-11T19:50:08.040Z,15.10
2024-04-11T19:52:34.720Z,15.55
2024-04-11T19:55:21.853Z,13.30
2024-04-11T19:57:49.587Z,12.77
2024-04-11T20:00:34.463Z,14.07
2024-04-11T20:03:17.261Z,13.40
2024-04-11T20:06:00.670Z,15.55
2024-04-11T20:08:28.453Z,17.50
2024-04-11T20:11:04.475Z,14.60
2024-04-11T20:13:47.748Z,14.57
2024-04-11T20:16:18.496Z,18.73
2024-04-11T20:18:49.093Z,15.20
2024-04-11T20:21:16.208Z,15.03
2024-04-11T20:23:45.994Z,22.20
2024-04-11T20:26:18.172Z,13.80
2024-04-11T20:28:48.691Z,18.20
2024-04-11T20:31:19.058Z,17.55
2024-04-11T20:33:51.170Z,22.87
2024-04-11T20:36:20.771Z,19.23
2024-04-11T20:38:50.530Z,18.90
2024-04-11T20:41:26.266Z,19.03
2024-04-11T20:44:19.689Z,21.20
2024-04-11T20:47:15.186Z,22.37
2024-04-11T20:49:44.608Z,21.53
2024-04-11T20:52:32.150Z,20.83
2024-04-11T20:55:17.366Z,21.90
2024-04-11T20:58:02.653Z,25.65
2024-04-11T21:00:48.138Z,24.00
2024-04-11T21:03:33.462Z,22.47
2024-04-11T21:06:20.342Z,22.23
2024-04-11T21:09:07.398Z,24.03
2024-04-11T21:11:53.062Z,24.92
2024-04-11T21:14:38.683Z,24.67
2024-04-11T21:17:24.405Z,22.57
2024-04-11T21:20:10.763Z,28.50
2024-04-11T21:22:55.790Z,22.53
2024-04-11T21:25:43.260Z,22.83
2024-04-11T21:28:29.422Z,27.30
2024-04-11T21:31:15.227Z,23.57
2024-04-11T21:33:49.378Z,21.97
2024-04-11T21:36:20.333Z,26.30
2024-04-11T21:38:48.420Z,24.05
2024-04-11T21:41:30.232Z,26.10
2024-04-11T21:43:57.521Z,23.60
2024-04-11T21:46:36.335Z,27.33
2024-04-11T21:49:03.451Z,24.67
2024-04-11T21:51:34.607Z,24.25
2024-04-11T21:54:02.896Z,25.03
2024-04-11T21:56:33.303Z,25.33
2024-04-11T21:59:01.393Z,22.43
2024-04-11T22:01:44.957Z,23.00
2024-04-11T22:04:13.304Z,21.20
2024-04-11T22:06:41.601Z,20.47
2024-04-11T22:09:16.967Z,18.30
2024-04-11T22:11:46.699Z,22.40
2024-04-11T22:14:22.525Z,22.37
2024-04-11T22:16:56.349Z,23.15
2024-04-11T22:19:24.917Z,19.93
2024-04-11T22:21:56.577Z,23.13
2024-04-11T22:24:26.334Z,19.50
2024-04-11T22:26:53.034Z,19.47
2024-04-11T22:29:22.700Z,22.58
2024-04-11T22:31:54.300Z,19.47
2024-04-11T22:34:25.579Z,17.87
2024-04-11T22:36:55.005Z,19.47
2024-04-11T22:39:21.810Z,21.20
2024-04-11T22:41:57.868Z,20.95
2024-04-11T22:44:25.154Z,17.27
2024-04-11T22:46:58.598Z,18.37
2024-04-11T22:49:32.959Z,19.10
2024-04-11T22:52:02.437Z,17.77
2024-04-11T22:54:32.405Z,18.77
2024-04-11T22:57:00.778Z,19.80
2024-04-11T22:59:31.812Z,20.30
2024-04-11T23:02:18.740Z,19.30
2024-04-11T23:05:01.791Z,16.70
2024-04-11T23:07:36.722Z,18.15
2024-04-11T23:10:21.186Z,18.90
2024-04-11T23:12:53.193Z,17.20
2024-04-11T23:15:24.850Z,22.10
2024-04-11T23:18:08.641Z,17.87
2024-04-11T23:20:38.473Z,17.98
2024-04-11T23:23:18.829Z,16.93
2024-04-11T23:26:04.524Z,16.00
2024-04-11T23:28:32.898Z,16.90
2024-04-11T23:31:06.140Z,15.80
2024-04-11T23:33:34.709Z,15.40
2024-04-11T23:36:09.861Z,14.40
2024-04-11T23:38:41.322Z,16.23
2024-04-11T23:41:12.205Z,15.57
2024-04-11T23:43:47.031Z,15.97
2024-04-11T23:46:34.080Z,14.82
2024-04-11T23:49:09.675Z,15.77
2024-04-11T23:51:50.081Z,14.43
2024-04-11T23:54:23.543Z,16.20
2024-04-11T23:57:00.890Z,16.03
2024-04-11T23:59:38.192Z,18.30
